sensor_id;sensor_type;location;lat;lon;timestamp;pressure;altitude;pressure_sealevel;temperature;humidity
4590;BME280;2307;48.448;9.216;2024-02-21T00:00:01;96386.44;;;7.99;100.00
4590;BME280;2307;48.448;9.216;2024-02-21T00:02:28;96379.38;;;8.00;100.00
4590;BME280;2307;48.448;9.216;2024-02-21T00:04:54;96396.97;;;7.99;100.00
4590;BME280;2307;48.448;9.216;2024-02-21T00:07:21;96397.78;;;8.00;100.00
4590;BME280;2307;48.448;9.216;2024-02-21T00:09:49;96382.63;;;8.02;100.00
4590;BME280;2307;48.448;9.216;2024-02-21T00:12:15;96391.53;;;8.01;100.00
4590;BME280;2307;48.448;9.216;2024-02-21T00:14:41;96387.91;;;8.02;100.00
4590;BME280;2307;48.448;9.216;2024-02-21T00:17:08;96383.63;;;8.01;100.00
4590;BME280;2307;48.448;9.216;2024-02-21T00:19:35;96383.63;;;8.01;100.00
4590;BME280;2307;48.448;9.216;2024-02-21T00:22:01;96386.88;;;8.03;100.00
4590;BME280;2307;48.448;9.216;2024-02-21T00:24:27;96378.97;;;8.03;100.00
4590;BME280;2307;48.448;9.216;2024-02-21T00:26:55;96379.59;;;8.05;100.00
4590;BME280;2307;48.448;9.216;2024-02-21T00:29:21;96376.97;;;8.05;100.00
4590;BME280;2307;48.448;9.216;2024-02-21T00:31:48;96377.19;;;8.10;100.00
4590;BME280;2307;48.448;9.216;2024-02-21T00:34:15;96376.78;;;8.07;100.00
4590;BME280;2307;48.448;9.216;2024-02-21T00:36:41;96375.56;;;8.09;100.00
4590;BME280;2307;48.448;9.216;2024-02-21T00:39:08;96367.09;;;8.14;100.00
4590;BME280;2307;48.448;9.216;2024-02-21T00:41:34;96357.56;;;8.13;100.00
4590;BME280;2307;48.448;9.216;2024-02-21T00:44:02;96356.56;;;8.14;100.00
4590;BME280;2307;48.448;9.216;2024-02-21T00:46:30;96349.50;;;8.14;100.00
4590;BME280;2307;48.448;9.216;2024-02-21T00:48:57;96357.00;;;8.17;100.00
4590;BME280;2307;48.448;9.216;2024-02-21T00:51:23;96353.34;;;8.18;100.00
4590;BME280;2307;48.448;9.216;2024-02-21T00:53:49;96349.28;;;8.16;100.00
4590;BME280;2307;48.448;9.216;2024-02-21T00:56:16;96349.28;;;8.16;100.00
4590;BME280;2307;48.448;9.216;2024-02-21T00:58:42;96358.19;;;8.15;100.00
4590;BME280;2307;48.448;9.216;2024-02-21T01:01:10;96354.75;;;8.14;100.00
4590;BME280;2307;48.448;9.216;2024-02-21T01:03:39;96345.22;;;8.13;100.00
4590;BME280;2307;48.448;9.216;2024-02-21T01:06:05;96341.34;;;8.09;100.00
4590;BME280;2307;48.448;9.216;2024-02-21T01:08:31;96337.91;;;8.09;100.00
4590;BME280;2307;48.448;9.216;2024-02-21T01:10:58;96339.53;;;8.10;100.00
4590;BME280;2307;48.448;9.216;2024-02-21T01:13:24;96335.31;;;8.15;100.00
4590;BME280;2307;48.448;9.216;2024-02-21T01:15:50;96337.94;;;8.15;100.00
4590;BME280;2307;48.448;9.216;2024-02-21T01:18:18;96329.44;;;8.13;100.00
4590;BME280;2307;48.448;9.216;2024-02-21T01:20:44;96337.34;;;8.13;100.00
4590;BME280;2307;48.448;9.216;2024-02-21T01:23:11;96332.69;;;8.15;100.00
4590;BME280;2307;48.448;9.216;2024-02-21T01:25:37;96321.38;;;8.15;100.00
4590;BME280;2307;48.448;9.216;2024-02-21T01:28:04;96324.19;;;8.13;100.00
4590;BME280;2307;48.448;9.216;2024-02-21T01:30:30;96321.75;;;8.12;100.00
4590;BME280;2307;48.448;9.216;2024-02-21T01:32:56;96315.88;;;8.10;100.00
4590;BME280;2307;48.448;9.216;2024-02-21T01:35:24;96315.88;;;8.10;100.00
4590;BME280;2307;48.448;9.216;2024-02-21T01:37:50;96314.06;;;8.10;100.00
4590;BME280;2307;48.448;9.216;2024-02-21T01:40:17;96299.06;;;8.11;100.00
4590;BME280;2307;48.448;9.216;2024-02-21T01:42:44;96290.75;;;8.07;100.00
4590;BME280;2307;48.448;9.216;2024-02-21T01:45:11;96281.25;;;8.06;100.00
4590;BME280;2307;48.448;9.216;2024-02-21T01:47:37;96281.25;;;8.06;100.00
4590;BME280;2307;48.448;9.216;2024-02-21T01:50:04;96277.22;;;8.10;100.00
4590;BME280;2307;48.448;9.216;2024-02-21T01:52:32;96264.88;;;8.11;100.00
4590;BME280;2307;48.448;9.216;2024-02-21T01:54:59;96268.75;;;8.15;100.00
4590;BME280;2307;48.448;9.216;2024-02-21T01:57:26;96260.03;;;8.14;100.00
4590;BME280;2307;48.448;9.216;2024-02-21T01:59:53;96258.22;;;8.15;100.00
4590;BME280;2307;48.448;9.216;2024-02-21T02:02:20;96259.00;;;8.15;100.00
4590;BME280;2307;48.448;9.216;2024-02-21T02:04:47;96261.25;;;8.18;100.00
4590;BME280;2307;48.448;9.216;2024-02-21T02:07:14;96250.31;;;8.15;100.00
4590;BME280;2307;48.448;9.216;2024-02-21T02:09:41;96244.44;;;8.13;100.00
4590;BME280;2307;48.448;9.216;2024-02-21T02:12:08;96239.97;;;8.13;100.00
4590;BME280;2307;48.448;9.216;2024-02-21T02:14:34;96236.34;;;8.14;100.00
4590;BME280;2307;48.448;9.216;2024-02-21T02:17:01;96223.78;;;8.16;100.00
4590;BME280;2307;48.448;9.216;2024-02-21T02:19:27;96234.31;;;8.16;100.00
4590;BME280;2307;48.448;9.216;2024-02-21T02:21:56;96228.06;;;8.17;100.00
4590;BME280;2307;48.448;9.216;2024-02-21T02:24:27;96234.31;;;8.16;100.00
4590;BME280;2307;48.448;9.216;2024-02-21T02:26:53;96235.94;;;8.17;100.00
4590;BME280;2307;48.448;9.216;2024-02-21T02:29:20;96222.16;;;8.15;100.00
4590;BME280;2307;48.448;9.216;2024-02-21T02:31:46;96211.25;;;8.12;100.00
4590;BME280;2307;48.448;9.216;2024-02-21T02:34:13;96208.81;;;8.10;100.00
4590;BME280;2307;48.448;9.216;2024-02-21T02:36:39;96203.16;;;8.13;100.00
4590;BME280;2307;48.448;9.216;2024-02-21T02:39:06;96195.66;;;8.10;100.00
4590;BME280;2307;48.448;9.216;2024-02-21T02:41:35;96197.06;;;8.06;100.00
4590;BME280;2307;48.448;9.216;2024-02-21T02:44:02;96200.31;;;8.08;100.00
4590;BME280;2307;48.448;9.216;2024-02-21T02:46:28;96193.41;;;8.07;100.00
4590;BME280;2307;48.448;9.216;2024-02-21T02:48:54;96195.63;;;8.03;100.00
4590;BME280;2307;48.448;9.216;2024-02-21T02:51:21;96186.94;;;8.03;100.00
4590;BME280;2307;48.448;9.216;2024-02-21T02:53:47;96178.44;;;8.01;100.00
4590;BME280;2307;48.448;9.216;2024-02-21T02:56:14;96178.03;;;8.04;100.00
4590;BME280;2307;48.448;9.216;2024-02-21T02:58:42;96181.66;;;8.03;100.00
4590;BME280;2307;48.448;9.216;2024-02-21T03:01:08;96164.88;;;8.04;100.00
4590;BME280;2307;48.448;9.216;2024-02-21T03:03:34;96160.44;;;8.05;100.00
4590;BME280;2307;48.448;9.216;2024-02-21T03:06:01;96162.25;;;8.04;100.00
4590;BME280;2307;48.448;9.216;2024-02-21T03:08:27;96152.34;;;8.06;100.00
4590;BME280;2307;48.448;9.216;2024-02-21T03:10:54;96142.84;;;8.05;100.00
4590;BME280;2307;48.448;9.216;2024-02-21T03:13:20;96138.19;;;8.07;100.00
4590;BME280;2307;48.448;9.216;2024-02-21T03:15:48;96134.53;;;8.08;100.00
4590;BME280;2307;48.448;9.216;2024-02-21T03:18:14;96130.69;;;8.11;99.52
4590;BME280;2307;48.448;9.216;2024-02-21T03:20:40;96127.44;;;8.09;100.00
4590;BME280;2307;48.448;9.216;2024-02-21T03:23:07;96122.59;;;7.99;100.00
4590;BME280;2307;48.448;9.216;2024-02-21T03:25:33;96114.06;;;7.97;100.00
4590;BME280;2307;48.448;9.216;2024-02-21T03:27:59;96122.56;;;7.86;100.00
4590;BME280;2307;48.448;9.216;2024-02-21T03:30:26;96131.47;;;7.85;100.00
4590;BME280;2307;48.448;9.216;2024-02-21T03:32:54;96126.41;;;7.90;100.00
4590;BME280;2307;48.448;9.216;2024-02-21T03:35:21;96122.97;;;7.96;100.00
4590;BME280;2307;48.448;9.216;2024-02-21T03:37:51;96113.88;;;7.92;100.00
4590;BME280;2307;48.448;9.216;2024-02-21T03:40:17;96110.03;;;7.88;100.00
4590;BME280;2307;48.448;9.216;2024-02-21T03:42:44;96105.16;;;7.85;100.00
4590;BME280;2307;48.448;9.216;2024-02-21T03:45:10;96097.47;;;7.83;100.00
4590;BME280;2307;48.448;9.216;2024-02-21T03:47:36;96098.28;;;7.84;100.00
4590;BME280;2307;48.448;9.216;2024-02-21T03:50:05;96101.09;;;7.76;100.00
4590;BME280;2307;48.448;9.216;2024-02-21T03:52:31;96101.06;;;7.63;100.00
4590;BME280;2307;48.448;9.216;2024-02-21T03:54:58;96103.88;;;7.61;100.00
4590;BME280;2307;48.448;9.216;2024-02-21T03:57:24;96098.88;;;7.66;100.00
4590;BME280;2307;48.448;9.216;2024-02-21T03:59:50;96097.88;;;7.67;100.00
4590;BME280;2307;48.448;9.216;2024-02-21T04:02:17;96097.06;;;7.73;100.00
4590;BME280;2307;48.448;9.216;2024-02-21T04:04:44;96094.63;;;7.72;100.00
4590;BME280;2307;48.448;9.216;2024-02-21T04:07:12;96099.47;;;7.68;100.00
4590;BME280;2307;48.448;9.216;2024-02-21T04:09:39;96101.50;;;7.66;100.00
4590;BME280;2307;48.448;9.216;2024-02-21T04:12:05;96103.13;;;7.67;100.00
4590;BME280;2307;48.448;9.216;2024-02-21T04:14:32;96106.34;;;7.69;100.00
4590;BME280;2307;48.448;9.216;2024-02-21T04:16:59;96102.50;;;7.72;100.00
4590;BME280;2307;48.448;9.216;2024-02-21T04:19:25;96098.25;;;7.71;100.00
4590;BME280;2307;48.448;9.216;2024-02-21T04:21:52;96105.13;;;7.72;100.00
4590;BME280;2307;48.448;9.216;2024-02-21T04:24:19;96103.09;;;7.74;100.00
4590;BME280;2307;48.448;9.216;2024-02-21T04:26:46;96104.94;;;7.73;100.00
4590;BME280;2307;48.448;9.216;2024-02-21T04:29:12;96094.63;;;7.72;100.00
4590;BME280;2307;48.448;9.216;2024-02-21T04:31:38;96089.97;;;7.74;100.00
4590;BME280;2307;48.448;9.216;2024-02-21T04:34:05;96080.25;;;7.74;100.00
4590;BME280;2307;48.448;9.216;2024-02-21T04:36:32;96069.16;;;7.72;100.00
4590;BME280;2307;48.448;9.216;2024-02-21T04:38:59;96067.50;;;7.71;99.93
4590;BME280;2307;48.448;9.216;2024-02-21T04:41:26;96065.50;;;7.73;98.79
4590;BME280;2307;48.448;9.216;2024-02-21T04:43:53;96058.22;;;7.75;97.09
4590;BME280;2307;48.448;9.216;2024-02-21T04:46:19;96052.16;;;7.75;96.30
4590;BME280;2307;48.448;9.216;2024-02-21T04:48:45;96045.25;;;7.74;95.26
4590;BME280;2307;48.448;9.216;2024-02-21T04:51:12;96046.28;;;7.73;93.91
4590;BME280;2307;48.448;9.216;2024-02-21T04:53:38;96047.91;;;7.74;92.66
4590;BME280;2307;48.448;9.216;2024-02-21T04:56:05;96052.97;;;7.75;94.46
4590;BME280;2307;48.448;9.216;2024-02-21T04:58:33;96049.13;;;7.78;96.81
4590;BME280;2307;48.448;9.216;2024-02-21T05:00:59;96042.44;;;7.75;97.75
4590;BME280;2307;48.448;9.216;2024-02-21T05:03:25;96034.56;;;7.69;99.59
4590;BME280;2307;48.448;9.216;2024-02-21T05:05:52;96030.69;;;7.65;100.00
4590;BME280;2307;48.448;9.216;2024-02-21T05:08:18;96025.66;;;7.57;100.00
4590;BME280;2307;48.448;9.216;2024-02-21T05:10:44;96030.69;;;7.45;100.00
4590;BME280;2307;48.448;9.216;2024-02-21T05:13:11;96037.75;;;7.44;100.00
4590;BME280;2307;48.448;9.216;2024-02-21T05:15:38;96036.34;;;7.48;100.00
4590;BME280;2307;48.448;9.216;2024-02-21T05:18:05;96029.88;;;7.51;100.00
4590;BME280;2307;48.448;9.216;2024-02-21T05:20:31;96021.59;;;7.47;100.00
4590;BME280;2307;48.448;9.216;2024-02-21T05:22:58;96030.28;;;7.41;100.00
4590;BME280;2307;48.448;9.216;2024-02-21T05:25:24;96027.44;;;7.43;100.00
4590;BME280;2307;48.448;9.216;2024-02-21T05:27:50;96025.03;;;7.41;100.00
4590;BME280;2307;48.448;9.216;2024-02-21T05:30:18;96033.91;;;7.40;100.00
4590;BME280;2307;48.448;9.216;2024-02-21T05:32:46;96028.44;;;7.35;100.00
4590;BME280;2307;48.448;9.216;2024-02-21T05:35:13;96031.47;;;7.32;100.00
4590;BME280;2307;48.448;9.216;2024-02-21T05:37:39;96033.06;;;7.33;100.00
4590;BME280;2307;48.448;9.216;2024-02-21T05:40:06;96032.47;;;7.31;100.00
4590;BME280;2307;48.448;9.216;2024-02-21T05:42:32;96040.13;;;7.33;100.00
4590;BME280;2307;48.448;9.216;2024-02-21T05:44:59;96040.34;;;7.31;100.00
4590;BME280;2307;48.448;9.216;2024-02-21T05:47:25;96041.16;;;7.25;100.00
4590;BME280;2307;48.448;9.216;2024-02-21T05:49:53;96029.44;;;7.28;100.00
4590;BME280;2307;48.448;9.216;2024-02-21T05:52:19;96013.66;;;7.28;100.00
4590;BME280;2307;48.448;9.216;2024-02-21T05:54:46;96003.56;;;7.25;100.00
4590;BME280;2307;48.448;9.216;2024-02-21T05:57:12;95995.25;;;7.21;100.00
4590;BME280;2307;48.448;9.216;2024-02-21T05:59:38;95995.06;;;7.23;100.00
4590;BME280;2307;48.448;9.216;2024-02-21T06:02:07;96001.75;;;7.25;100.00
4590;BME280;2307;48.448;9.216;2024-02-21T06:04:33;96005.19;;;7.26;100.00
4590;BME280;2307;48.448;9.216;2024-02-21T06:07:01;96007.19;;;7.24;100.00
4590;BME280;2307;48.448;9.216;2024-02-21T06:09:27;96000.91;;;7.18;100.00
4590;BME280;2307;48.448;9.216;2024-02-21T06:11:53;96003.09;;;7.08;100.00
4590;BME280;2307;48.448;9.216;2024-02-21T06:14:20;95999.63;;;6.94;100.00
4590;BME280;2307;48.448;9.216;2024-02-21T06:16:46;95991.34;;;6.91;100.00
4590;BME280;2307;48.448;9.216;2024-02-21T06:19:13;95987.66;;;6.85;100.00
4590;BME280;2307;48.448;9.216;2024-02-21T06:21:39;95986.50;;;6.88;100.00
4590;BME280;2307;48.448;9.216;2024-02-21T06:24:07;95998.63;;;6.95;100.00
4590;BME280;2307;48.448;9.216;2024-02-21T06:26:33;95990.53;;;6.90;100.00
4590;BME280;2307;48.448;9.216;2024-02-21T06:29:00;95993.97;;;6.91;100.00
4590;BME280;2307;48.448;9.216;2024-02-21T06:31:27;95995.38;;;6.87;100.00
4590;BME280;2307;48.448;9.216;2024-02-21T06:33:53;96005.47;;;6.90;100.00
4590;BME280;2307;48.448;9.216;2024-02-21T06:36:19;95997.00;;;6.88;100.00
4590;BME280;2307;48.448;9.216;2024-02-21T06:38:46;96011.72;;;6.89;100.00
4590;BME280;2307;48.448;9.216;2024-02-21T06:41:17;96014.34;;;6.89;100.00
4590;BME280;2307;48.448;9.216;2024-02-21T06:43:44;96003.44;;;6.85;100.00
4590;BME280;2307;48.448;9.216;2024-02-21T06:46:10;96002.00;;;6.83;100.00
4590;BME280;2307;48.448;9.216;2024-02-21T06:48:37;95997.75;;;6.82;100.00
4590;BME280;2307;48.448;9.216;2024-02-21T06:51:03;95999.81;;;6.86;100.00
4590;BME280;2307;48.448;9.216;2024-02-21T06:53:30;96005.69;;;6.95;100.00
4590;BME280;2307;48.448;9.216;2024-02-21T06:55:56;96010.53;;;6.98;100.00
4590;BME280;2307;48.448;9.216;2024-02-21T06:58:24;96009.53;;;6.99;100.00
4590;BME280;2307;48.448;9.216;2024-02-21T07:00:51;96014.38;;;6.95;100.00
4590;BME280;2307;48.448;9.216;2024-02-21T07:03:17;96008.31;;;6.95;100.00
4590;BME280;2307;48.448;9.216;2024-02-21T07:05:43;96004.47;;;6.91;100.00
4590;BME280;2307;48.448;9.216;2024-02-21T07:08:10;96006.31;;;6.97;100.00
4590;BME280;2307;48.448;9.216;2024-02-21T07:10:36;95999.03;;;6.99;100.00
4590;BME280;2307;48.448;9.216;2024-02-21T07:13:03;96002.25;;;7.01;100.00
4590;BME280;2307;48.448;9.216;2024-02-21T07:15:31;96003.28;;;7.00;100.00
4590;BME280;2307;48.448;9.216;2024-02-21T07:17:58;95995.03;;;7.03;100.00
4590;BME280;2307;48.448;9.216;2024-02-21T07:20:24;95994.63;;;7.06;100.00
4590;BME280;2307;48.448;9.216;2024-02-21T07:22:50;95978.88;;;7.13;100.00
4590;BME280;2307;48.448;9.216;2024-02-21T07:25:17;95975.06;;;7.22;100.00
4590;BME280;2307;48.448;9.216;2024-02-21T07:27:43;95986.56;;;7.21;100.00
4590;BME280;2307;48.448;9.216;2024-02-21T07:30:10;95981.31;;;7.27;100.00
4590;BME280;2307;48.448;9.216;2024-02-21T07:32:38;95986.78;;;7.19;100.00
4590;BME280;2307;48.448;9.216;2024-02-21T07:35:05;95988.16;;;7.15;100.00
4590;BME280;2307;48.448;9.216;2024-02-21T07:37:35;95985.34;;;7.17;100.00
4590;BME280;2307;48.448;9.216;2024-02-21T07:40:02;95980.72;;;7.25;100.00
4590;BME280;2307;48.448;9.216;2024-02-21T07:42:29;95978.94;;;7.32;100.00
4590;BME280;2307;48.448;9.216;2024-02-21T07:44:55;95982.56;;;7.44;100.00
4590;BME280;2307;48.448;9.216;2024-02-21T07:47:22;95971.25;;;7.51;100.00
4590;BME280;2307;48.448;9.216;2024-02-21T07:49:50;95964.78;;;7.60;100.00
4590;BME280;2307;48.448;9.216;2024-02-21T07:52:16;95964.78;;;7.66;100.00
4590;BME280;2307;48.448;9.216;2024-02-21T07:54:42;95960.53;;;7.72;100.00
4590;BME280;2307;48.448;9.216;2024-02-21T07:57:09;95959.94;;;7.76;100.00
4590;BME280;2307;48.448;9.216;2024-02-21T07:59:35;95961.53;;;7.84;99.44
4590;BME280;2307;48.448;9.216;2024-02-21T08:02:01;95946.16;;;7.87;97.13
4590;BME280;2307;48.448;9.216;2024-02-21T08:04:31;95945.16;;;7.95;96.70
4590;BME280;2307;48.448;9.216;2024-02-21T08:06:59;95936.44;;;8.01;95.87
4590;BME280;2307;48.448;9.216;2024-02-21T08:09:27;95936.19;;;8.09;96.00
4590;BME280;2307;48.448;9.216;2024-02-21T08:11:54;95935.59;;;8.14;93.87
4590;BME280;2307;48.448;9.216;2024-02-21T08:14:20;95937.41;;;8.20;92.44
4590;BME280;2307;48.448;9.216;2024-02-21T08:16:47;95934.16;;;8.24;92.05
4590;BME280;2307;48.448;9.216;2024-02-21T08:19:13;95927.47;;;8.28;91.16
4590;BME280;2307;48.448;9.216;2024-02-21T08:21:40;95935.78;;;8.32;91.37
4590;BME280;2307;48.448;9.216;2024-02-21T08:24:07;95932.31;;;8.38;91.10
4590;BME280;2307;48.448;9.216;2024-02-21T08:26:34;95926.63;;;8.41;93.40
4590;BME280;2307;48.448;9.216;2024-02-21T08:29:01;95926.22;;;8.44;93.76
4590;BME280;2307;48.448;9.216;2024-02-21T08:31:27;95927.03;;;8.44;92.22
4590;BME280;2307;48.448;9.216;2024-02-21T08:33:56;95921.34;;;8.47;89.29
4590;BME280;2307;48.448;9.216;2024-02-21T08:36:27;95916.06;;;8.54;89.44
4590;BME280;2307;48.448;9.216;2024-02-21T08:38:53;95916.25;;;8.59;87.57
4590;BME280;2307;48.448;9.216;2024-02-21T08:41:21;95912.16;;;8.63;86.04
4590;BME280;2307;48.448;9.216;2024-02-21T08:43:48;95913.75;;;8.71;83.69
4590;BME280;2307;48.448;9.216;2024-02-21T08:46:14;95909.47;;;8.76;82.24
4590;BME280;2307;48.448;9.216;2024-02-21T08:48:41;95911.06;;;8.84;82.60
4590;BME280;2307;48.448;9.216;2024-02-21T08:51:07;95888.91;;;8.91;81.86
4590;BME280;2307;48.448;9.216;2024-02-21T08:53:33;95891.50;;;8.98;81.93
4590;BME280;2307;48.448;9.216;2024-02-21T08:56:00;95903.09;;;8.97;81.65
4590;BME280;2307;48.448;9.216;2024-02-21T08:58:28;95900.84;;;9.00;78.84
4590;BME280;2307;48.448;9.216;2024-02-21T09:00:54;95891.69;;;9.03;77.84
4590;BME280;2307;48.448;9.216;2024-02-21T09:03:21;95897.13;;;9.08;77.22
4590;BME280;2307;48.448;9.216;2024-02-21T09:05:48;95894.69;;;9.13;77.05
4590;BME280;2307;48.448;9.216;2024-02-21T09:08:14;95897.47;;;9.18;77.78
4590;BME280;2307;48.448;9.216;2024-02-21T09:10:41;95890.75;;;9.22;76.73
4590;BME280;2307;48.448;9.216;2024-02-21T09:13:07;95880.75;;;9.31;75.41
4590;BME280;2307;48.448;9.216;2024-02-21T09:15:35;95879.50;;;9.33;75.42
4590;BME280;2307;48.448;9.216;2024-02-21T09:18:02;95873.59;;;9.38;73.85
4590;BME280;2307;48.448;9.216;2024-02-21T09:20:28;95875.00;;;9.40;74.46
4590;BME280;2307;48.448;9.216;2024-02-21T09:22:56;95877.00;;;9.45;75.80
4590;BME280;2307;48.448;9.216;2024-02-21T09:25:22;95878.00;;;9.44;77.44
4590;BME280;2307;48.448;9.216;2024-02-21T09:27:48;95868.66;;;9.48;78.33
4590;BME280;2307;48.448;9.216;2024-02-21T09:30:17;95864.97;;;9.49;78.52
4590;BME280;2307;48.448;9.216;2024-02-21T09:32:45;95861.72;;;9.53;78.73
4590;BME280;2307;48.448;9.216;2024-02-21T09:35:11;95862.53;;;9.54;81.03
4590;BME280;2307;48.448;9.216;2024-02-21T09:37:38;95858.69;;;9.50;86.37
4590;BME280;2307;48.448;9.216;2024-02-21T09:40:05;95855.69;;;9.46;94.24
4590;BME280;2307;48.448;9.216;2024-02-21T09:42:34;95851.41;;;9.45;94.97
4590;BME280;2307;48.448;9.216;2024-02-21T09:45:03;95843.78;;;9.37;98.55
4590;BME280;2307;48.448;9.216;2024-02-21T09:47:34;95835.72;;;9.32;100.00
4590;BME280;2307;48.448;9.216;2024-02-21T09:50:07;95843.63;;;9.32;100.00
4590;BME280;2307;48.448;9.216;2024-02-21T09:52:34;95835.50;;;9.34;96.50
4590;BME280;2307;48.448;9.216;2024-02-21T09:55:01;95832.59;;;9.42;94.04
4590;BME280;2307;48.448;9.216;2024-02-21T09:57:30;95828.31;;;9.47;92.53
4590;BME280;2307;48.448;9.216;2024-02-21T09:59:56;95825.38;;;9.55;94.82
4590;BME280;2307;48.448;9.216;2024-02-21T10:02:24;95813.50;;;9.65;97.03
4590;BME280;2307;48.448;9.216;2024-02-21T10:04:50;95812.63;;;9.71;96.82
4590;BME280;2307;48.448;9.216;2024-02-21T10:07:18;95816.25;;;9.76;100.00
4590;BME280;2307;48.448;9.216;2024-02-21T10:09:48;95828.75;;;9.81;100.00
4590;BME280;2307;48.448;9.216;2024-02-21T10:12:14;95819.53;;;9.90;100.00
4590;BME280;2307;48.448;9.216;2024-02-21T10:14:44;95823.72;;;9.97;100.00
4590;BME280;2307;48.448;9.216;2024-02-21T10:17:16;95815.28;;;10.07;100.00
4590;BME280;2307;48.448;9.216;2024-02-21T10:19:43;95811.91;;;10.18;100.00
4590;BME280;2307;48.448;9.216;2024-02-21T10:22:10;95807.16;;;10.27;100.00
4590;BME280;2307;48.448;9.216;2024-02-21T10:24:37;95808.69;;;10.34;98.20
4590;BME280;2307;48.448;9.216;2024-02-21T10:27:06;95808.97;;;10.44;99.32
4590;BME280;2307;48.448;9.216;2024-02-21T10:29:34;95810.94;;;10.49;100.00
4590;BME280;2307;48.448;9.216;2024-02-21T10:32:06;95802.13;;;10.55;98.23
4590;BME280;2307;48.448;9.216;2024-02-21T10:34:33;95795.13;;;10.60;99.22
4590;BME280;2307;48.448;9.216;2024-02-21T10:37:01;95794.81;;;10.69;99.76
4590;BME280;2307;48.448;9.216;2024-02-21T10:39:28;95787.22;;;10.72;100.00
4590;BME280;2307;48.448;9.216;2024-02-21T10:41:56;95782.81;;;10.84;98.79
4590;BME280;2307;48.448;9.216;2024-02-21T10:44:25;95781.28;;;10.88;98.66
4590;BME280;2307;48.448;9.216;2024-02-21T10:46:52;95775.66;;;10.85;98.61
4590;BME280;2307;48.448;9.216;2024-02-21T10:49:20;95776.91;;;10.71;98.44
4590;BME280;2307;48.448;9.216;2024-02-21T10:51:48;95776.75;;;10.65;99.16
4590;BME280;2307;48.448;9.216;2024-02-21T10:54:19;95766.78;;;10.68;98.88
4590;BME280;2307;48.448;9.216;2024-02-21T10:56:51;95759.78;;;10.73;97.29
4590;BME280;2307;48.448;9.216;2024-02-21T10:59:18;95754.41;;;10.80;98.08
4590;BME280;2307;48.448;9.216;2024-02-21T11:01:46;95761.66;;;10.84;95.84
4590;BME280;2307;48.448;9.216;2024-02-21T11:04:13;95746.97;;;11.00;98.92
4590;BME280;2307;48.448;9.216;2024-02-21T11:06:40;95743.66;;;11.16;94.23
4590;BME280;2307;48.448;9.216;2024-02-21T11:09:07;95738.69;;;11.19;96.28
4590;BME280;2307;48.448;9.216;2024-02-21T11:11:34;95733.28;;;11.26;97.10
4590;BME280;2307;48.448;9.216;2024-02-21T11:14:06;95727.78;;;11.39;99.32
4590;BME280;2307;48.448;9.216;2024-02-21T11:16:37;95722.47;;;11.39;96.05
4590;BME280;2307;48.448;9.216;2024-02-21T11:19:07;95719.13;;;11.55;96.18
4590;BME280;2307;48.448;9.216;2024-02-21T11:21:34;95712.78;;;11.68;90.87
4590;BME280;2307;48.448;9.216;2024-02-21T11:24:01;95708.09;;;11.70;89.30
4590;BME280;2307;48.448;9.216;2024-02-21T11:26:28;95701.16;;;11.69;90.14
4590;BME280;2307;48.448;9.216;2024-02-21T11:28:56;95695.06;;;11.68;86.02
4590;BME280;2307;48.448;9.216;2024-02-21T11:31:22;95695.53;;;11.65;85.67
4590;BME280;2307;48.448;9.216;2024-02-21T11:33:50;95688.41;;;11.54;83.73
4590;BME280;2307;48.448;9.216;2024-02-21T11:36:23;95686.00;;;11.53;87.11
4590;BME280;2307;48.448;9.216;2024-02-21T11:38:49;95679.22;;;11.57;83.44
4590;BME280;2307;48.448;9.216;2024-02-21T11:41:16;95667.47;;;11.64;83.60
4590;BME280;2307;48.448;9.216;2024-02-21T11:43:43;95668.66;;;11.57;82.55
4590;BME280;2307;48.448;9.216;2024-02-21T11:46:09;95662.63;;;11.61;81.62
4590;BME280;2307;48.448;9.216;2024-02-21T11:48:47;95656.41;;;11.67;82.13
4590;BME280;2307;48.448;9.216;2024-02-21T11:51:24;95651.38;;;11.66;80.29
4590;BME280;2307;48.448;9.216;2024-02-21T11:53:51;95648.25;;;11.69;81.72
4590;BME280;2307;48.448;9.216;2024-02-21T11:56:18;95632.28;;;11.76;84.82
4590;BME280;2307;48.448;9.216;2024-02-21T11:58:44;95631.78;;;11.79;85.68
4590;BME280;2307;48.448;9.216;2024-02-21T12:01:11;95626.25;;;11.80;83.33
4590;BME280;2307;48.448;9.216;2024-02-21T12:03:38;95624.41;;;11.81;79.12
4590;BME280;2307;48.448;9.216;2024-02-21T12:06:07;95624.28;;;11.87;74.80
4590;BME280;2307;48.448;9.216;2024-02-21T12:08:43;95619.78;;;11.88;78.64
4590;BME280;2307;48.448;9.216;2024-02-21T12:11:19;95627.34;;;11.96;77.55
4590;BME280;2307;48.448;9.216;2024-02-21T12:13:45;95618.28;;;11.92;74.57
4590;BME280;2307;48.448;9.216;2024-02-21T12:16:14;95615.25;;;12.00;77.10
4590;BME280;2307;48.448;9.216;2024-02-21T12:18:41;95607.97;;;12.07;73.95
4590;BME280;2307;48.448;9.216;2024-02-21T12:21:09;95603.81;;;12.11;71.14
4590;BME280;2307;48.448;9.216;2024-02-21T12:23:37;95605.88;;;12.25;70.36
4590;BME280;2307;48.448;9.216;2024-02-21T12:26:03;95602.38;;;12.20;68.71
4590;BME280;2307;48.448;9.216;2024-02-21T12:28:30;95596.81;;;12.21;69.48
4590;BME280;2307;48.448;9.216;2024-02-21T12:30:57;95587.34;;;12.25;71.26
4590;BME280;2307;48.448;9.216;2024-02-21T12:33:23;95589.38;;;12.35;72.13
4590;BME280;2307;48.448;9.216;2024-02-21T12:35:50;95590.72;;;12.38;73.71
4590;BME280;2307;48.448;9.216;2024-02-21T12:38:17;95581.97;;;12.37;73.61
4590;BME280;2307;48.448;9.216;2024-02-21T12:40:45;95588.56;;;12.35;73.34
4590;BME280;2307;48.448;9.216;2024-02-21T12:43:12;95577.00;;;12.41;74.62
4590;BME280;2307;48.448;9.216;2024-02-21T12:45:38;95566.81;;;12.49;71.68
4590;BME280;2307;48.448;9.216;2024-02-21T12:48:05;95558.88;;;12.49;70.26
4590;BME280;2307;48.448;9.216;2024-02-21T12:50:31;95555.25;;;12.55;70.41
4590;BME280;2307;48.448;9.216;2024-02-21T12:52:57;95553.16;;;12.57;67.76
4590;BME280;2307;48.448;9.216;2024-02-21T12:55:25;95544.22;;;12.63;66.95
4590;BME280;2307;48.448;9.216;2024-02-21T12:57:52;95539.06;;;12.73;68.22
4590;BME280;2307;48.448;9.216;2024-02-21T13:00:18;95529.28;;;12.74;66.83
4590;BME280;2307;48.448;9.216;2024-02-21T13:02:46;95532.47;;;12.76;70.02
4590;BME280;2307;48.448;9.216;2024-02-21T13:05:12;95520.25;;;12.75;69.95
4590;BME280;2307;48.448;9.216;2024-02-21T13:07:38;95513.88;;;12.71;67.36
4590;BME280;2307;48.448;9.216;2024-02-21T13:10:05;95516.41;;;12.83;70.03
4590;BME280;2307;48.448;9.216;2024-02-21T13:12:34;95509.16;;;12.78;72.48
4590;BME280;2307;48.448;9.216;2024-02-21T13:15:01;95500.84;;;12.69;70.88
4590;BME280;2307;48.448;9.216;2024-02-21T13:17:27;95492.91;;;12.69;74.02
4590;BME280;2307;48.448;9.216;2024-02-21T13:19:56;95492.66;;;12.71;72.13
4590;BME280;2307;48.448;9.216;2024-02-21T13:22:23;95488.94;;;12.72;72.65